Time;durP1;ratioP1;P1;durP2;ratioP2;P2;SDS_P1;SDS_P2;PMS_P1;PMS_P2;Temp;Humidity;BMP_temperature;BMP_pressure;BME280_temperature;BME280_humidity;BME280_pressure;Samples;Min_cycle;Max_cycle;Signal;HPM_P1;HPM_P2
2023/04/21 00:04:29;;;;;;;16.20;11.18;;;;;;;-146.18;100.00;67994.34;10075816;28;20098;-70
2023/04/21 00:09:26;;;;;;;18.30;11.52;;;;;;;-146.18;100.00;67994.34;10072603;28;20500;-70
2023/04/21 00:14:23;;;;;;;17.65;10.85;;;;;;;-146.18;100.00;67994.34;10065758;28;20039;-75
2023/04/21 00:19:19;;;;;;;14.15;10.55;;;;;;;-146.18;100.00;67994.34;10071815;28;20848;-75
2023/04/21 00:24:16;;;;;;;13.25;9.48;;;;;;;-146.18;100.00;67994.34;10064775;28;20066;-72
2023/04/21 00:29:12;;;;;;;18.25;11.65;;;;;;;-146.18;100.00;67994.34;10071814;28;20059;-73
2023/04/21 00:34:09;;;;;;;17.27;11.82;;;;;;;-146.18;100.00;67994.34;10074747;28;20674;-73
2023/04/21 00:39:05;;;;;;;19.55;10.98;;;;;;;-146.18;100.00;67994.34;10078883;28;20505;-73
2023/04/21 00:44:07;;;;;;;18.23;10.85;;;;;;;-146.18;100.00;67994.34;10076362;28;20134;-73
2023/04/21 00:49:05;;;;;;;17.60;10.98;;;;;;;-146.18;100.00;67994.34;10082992;28;20046;-73
2023/04/21 00:54:04;;;;;;;17.17;10.48;;;;;;;-146.18;100.00;67994.34;10066888;28;20073;-73
2023/04/21 00:59:01;;;;;;;12.57;9.23;;;;;;;-146.18;100.00;67994.34;10083251;28;20055;-73
2023/04/21 01:03:58;;;;;;;19.42;10.82;;;;;;;-146.18;100.00;67994.34;10080626;28;20043;-68
2023/04/21 01:08:55;;;;;;;18.27;10.98;;;;;;;-146.18;100.00;67994.34;10064981;28;20043;-68
2023/04/21 01:13:55;;;;;;;17.73;11.50;;;;;;;-146.18;100.00;67994.34;10080415;28;20171;-70
2023/04/21 01:18:52;;;;;;;22.85;12.13;;;;;;;-146.18;100.00;67994.34;10072929;28;20490;-73
2023/04/21 01:23:48;;;;;;;14.90;10.35;;;;;;;-146.18;100.00;67994.34;10027315;28;20071;-75
2023/04/21 01:28:47;;;;;;;13.93;10.18;;;;;;;-146.18;100.00;67994.34;10056806;28;20548;-71
2023/04/21 01:33:44;;;;;;;18.20;11.40;;;;;;;-146.18;100.00;67994.34;10079175;28;20047;-71
2023/04/21 01:38:41;;;;;;;15.32;10.50;;;;;;;-146.18;100.00;67994.34;10085067;28;20502;-72
2023/04/21 01:43:38;;;;;;;18.27;10.60;;;;;;;-146.18;100.00;67994.34;10072138;28;20498;-73
2023/04/21 01:48:35;;;;;;;25.40;12.05;;;;;;;-146.18;100.00;67994.34;10063758;28;20101;-73
2023/04/21 01:53:32;;;;;;;18.05;11.70;;;;;;;-146.18;100.00;67994.34;10073664;28;20050;-71
2023/04/21 01:58:28;;;;;;;12.57;9.60;;;;;;;-146.18;100.00;67994.34;10066807;28;20604;-71
2023/04/21 02:03:25;;;;;;;17.90;11.15;;;;;;;-146.18;100.00;67994.34;10065669;28;20625;-70
2023/04/21 02:08:22;;;;;;;15.90;10.68;;;;;;;-146.18;100.00;67994.34;10074580;28;20043;-70
2023/04/21 02:13:19;;;;;;;17.85;11.15;;;;;;;-146.18;100.00;67994.34;10065013;28;20055;-70
2023/04/21 02:18:15;;;;;;;14.23;9.18;;;;;;;-146.18;100.00;67994.34;10068018;28;20128;-74
2023/04/21 02:23:12;;;;;;;18.88;10.77;;;;;;;-146.18;100.00;67994.34;10068119;28;20090;-74
2023/04/21 02:28:08;;;;;;;15.55;10.23;;;;;;;-146.18;100.00;67994.34;10062262;28;20188;-74
2023/04/21 02:33:05;;;;;;;17.00;11.18;;;;;;;-146.18;100.00;67994.34;10059066;28;20053;-74
2023/04/21 02:38:06;;;;;;;15.75;10.20;;;;;;;-146.18;100.00;67994.34;10053720;28;20048;-74
2023/04/21 02:43:02;;;;;;;17.55;11.52;;;;;;;-146.18;100.00;67994.34;10059677;28;20454;-74
2023/04/21 02:47:59;;;;;;;18.27;11.32;;;;;;;-146.18;100.00;67994.34;10067681;28;20126;-74
2023/04/21 02:52:55;;;;;;;17.23;11.23;;;;;;;-146.18;100.00;67994.34;10077376;28;20161;-71
2023/04/21 02:57:52;;;;;;;17.90;9.63;;;;;;;-146.18;100.00;67994.34;10066317;28;20668;-71
2023/04/21 03:02:48;;;;;;;19.58;10.43;;;;;;;-146.18;100.00;67994.34;10074145;28;20049;-69
2023/04/21 03:07:45;;;;;;;16.38;10.07;;;;;;;-146.18;100.00;67994.34;10075888;28;20130;-72
2023/04/21 03:12:41;;;;;;;15.43;9.85;;;;;;;-146.18;100.00;67994.34;10067001;28;20051;-72
2023/04/21 03:17:38;;;;;;;14.43;10.70;;;;;;;-146.18;100.00;67994.34;10073781;28;20422;-71
2023/04/21 03:22:35;;;;;;;16.83;11.05;;;;;;;-146.18;100.00;67994.34;10070034;28;20502;-71
2023/04/21 03:27:32;;;;;;;16.75;9.90;;;;;;;-146.18;100.00;67994.34;10063122;28;20170;-72
2023/04/21 03:32:28;;;;;;;15.40;11.02;;;;;;;-146.18;100.00;67994.34;10055080;28;20143;-71
2023/04/21 03:37:25;;;;;;;15.80;11.05;;;;;;;-146.18;100.00;67994.34;10060628;28;20056;-75
2023/04/21 03:42:22;;;;;;;17.75;11.52;;;;;;;-146.18;100.00;67994.34;10061997;28;20461;-76
2023/04/21 03:47:18;;;;;;;17.90;10.77;;;;;;;-146.18;100.00;67994.34;10068373;28;20526;-76
2023/04/21 03:52:15;;;;;;;15.15;10.32;;;;;;;-146.18;100.00;67994.34;10065989;28;20044;-76
2023/04/21 03:57:13;;;;;;;14.80;11.00;;;;;;;-146.18;100.00;67994.34;10066718;28;20057;-75
2023/04/21 04:02:09;;;;;;;12.35;10.10;;;;;;;-146.18;100.00;67994.34;10064491;28;20123;-75
2023/04/21 04:07:07;;;;;;;18.90;11.65;;;;;;;-146.18;100.00;67994.34;10066152;28;20823;-75
2023/04/21 04:12:04;;;;;;;18.48;11.68;;;;;;;-146.18;100.00;67994.34;10059576;28;20079;-71
2023/04/21 04:17:00;;;;;;;13.57;10.88;;;;;;;-146.18;100.00;67994.34;10059543;28;20075;-70
2023/04/21 04:21:58;;;;;;;15.27;10.90;;;;;;;-146.18;100.00;67994.34;10069811;28;20141;-71
2023/04/21 04:26:56;;;;;;;19.48;12.07;;;;;;;-146.18;100.00;67994.34;10070202;28;20383;-71
2023/04/21 04:31:53;;;;;;;16.60;11.55;;;;;;;-146.18;100.00;67994.34;10059734;28;20064;-72
2023/04/21 04:36:50;;;;;;;23.25;11.43;;;;;;;-146.18;100.00;67994.34;10062297;28;20502;-76
2023/04/21 04:41:47;;;;;;;16.23;11.80;;;;;;;-146.18;100.00;67994.34;10056662;28;20075;-76
2023/04/21 04:46:44;;;;;;;13.88;11.65;;;;;;;-146.18;100.00;67994.34;10054511;28;20051;-75
2023/04/21 04:51:41;;;;;;;16.55;11.52;;;;;;;-146.18;100.00;67994.34;10055888;28;20051;-75
2023/04/21 04:56:38;;;;;;;16.08;11.00;;;;;;;-146.18;100.00;67994.34;10051054;28;20518;-75
2023/04/21 05:01:34;;;;;;;17.48;11.80;;;;;;;-146.18;100.00;67994.34;10061763;28;20094;-75
2023/04/21 05:06:31;;;;;;;21.02;12.25;;;;;;;-146.18;100.00;67994.34;10057758;28;20055;-75
2023/04/21 05:11:27;;;;;;;14.35;11.43;;;;;;;-146.18;100.00;67994.34;10052021;28;20055;-75
2023/04/21 05:16:24;;;;;;;14.88;11.60;;;;;;;-146.18;100.00;67994.34;10062285;28;20051;-75
2023/04/21 05:21:28;;;;;;;16.58;11.40;;;;;;;-146.18;100.00;67994.34;10059088;28;20139;-74
2023/04/21 05:26:26;;;;;;;14.45;11.43;;;;;;;-146.18;100.00;67994.34;10061827;28;20059;-74
2023/04/21 05:31:23;;;;;;;17.83;12.65;;;;;;;-146.18;100.00;67994.34;10066010;28;20409;-76
2023/04/21 05:36:20;;;;;;;18.95;11.15;;;;;;;-146.18;100.00;67994.34;10063506;28;20138;-75
2023/04/21 05:41:16;;;;;;;12.30;10.30;;;;;;;-146.18;100.00;67994.34;10065692;28;20053;-75
2023/04/21 05:46:13;;;;;;;15.70;11.32;;;;;;;-146.18;100.00;67994.34;10063154;28;20712;-76
2023/04/21 05:51:16;;;;;;;15.90;11.50;;;;;;;-146.18;100.00;67994.34;10056658;28;20051;-75
2023/04/21 05:56:13;;;;;;;15.68;10.07;;;;;;;-146.18;100.00;67994.34;10058718;28;20138;-74
2023/04/21 06:01:11;;;;;;;21.40;13.27;;;;;;;-146.18;100.00;67994.34;10063554;28;20047;-74
2023/04/21 06:06:09;;;;;;;15.50;11.25;;;;;;;-146.18;100.00;67994.34;10057027;28;20696;-74
2023/04/21 06:11:06;;;;;;;16.02;11.32;;;;;;;-146.18;100.00;67994.34;10059748;28;20577;-74
2023/04/21 06:16:03;;;;;;;14.23;11.30;;;;;;;-146.18;100.00;67994.34;10055869;28;20047;-74
2023/04/21 06:20:59;;;;;;;15.65;11.23;;;;;;;-146.18;100.00;67994.34;10065308;28;20572;-73
2023/04/21 06:26:02;;;;;;;14.15;11.23;;;;;;;-146.18;100.00;67994.34;10056418;28;20047;-74
2023/04/21 06:31:00;;;;;;;11.93;10.73;;;;;;;-146.18;100.00;67994.34;10062018;28;20145;-73
2023/04/21 06:35:56;;;;;;;13.48;12.02;;;;;;;-146.18;100.00;67994.34;10056137;28;20062;-73
2023/04/21 06:40:53;;;;;;;15.40;11.68;;;;;;;-146.18;100.00;67994.34;10059791;28;20086;-73
2023/04/21 06:45:49;;;;;;;10.52;9.45;;;;;;;-146.18;100.00;67994.34;10060262;28;20420;-73
2023/04/21 06:50:46;;;;;;;18.30;11.77;;;;;;;-146.18;100.00;67994.34;10058744;28;20134;-73
2023/04/21 06:55:43;;;;;;;18.83;13.68;;;;;;;-146.18;100.00;67994.34;10055918;28;20049;-73
2023/04/21 07:00:39;;;;;;;15.93;11.50;;;;;;;-146.18;100.00;67994.34;10056021;28;20134;-73
2023/04/21 07:05:36;;;;;;;13.18;10.15;;;;;;;-146.18;100.00;67994.34;10070830;28;20067;-73
2023/04/21 07:10:32;;;;;;;15.65;11.05;;;;;;;-146.18;100.00;67994.34;10065265;28;20046;-73
2023/04/21 07:15:29;;;;;;;14.55;10.27;;;;;;;-146.18;100.00;67994.34;10053887;28;20061;-73
2023/04/21 07:20:26;;;;;;;11.27;9.65;;;;;;;-146.18;100.00;67994.34;10062207;28;20044;-74
2023/04/21 07:25:23;;;;;;;12.90;9.77;;;;;;;-146.18;100.00;67994.34;10067901;28;20134;-73
2023/04/21 07:30:19;;;;;;;14.30;10.50;;;;;;;-146.18;100.00;67994.34;10061987;28;20058;-72
2023/04/21 07:35:16;;;;;;;11.48;9.23;;;;;;;-146.18;100.00;67994.34;10070191;28;20161;-71
2023/04/21 07:40:13;;;;;;;14.25;10.15;;;;;;;-146.18;100.00;67994.34;10069904;28;20122;-72
2023/04/21 07:45:10;;;;;;;13.30;10.60;;;;;;;-146.18;100.00;67994.34;10068674;28;20098;-72
2023/04/21 07:50:07;;;;;;;10.05;8.82;;;;;;;-146.18;100.00;67994.34;10070441;28;20693;-72
2023/04/21 07:55:05;;;;;;;12.75;10.32;;;;;;;-146.18;100.00;67994.34;10062952;28;20138;-72
2023/04/21 08:00:01;;;;;;;13.63;11.27;;;;;;;-146.18;100.00;67994.34;10062205;29;20666;-72
2023/04/21 08:04:58;;;;;;;13.50;10.10;;;;;;;-146.18;100.00;67994.34;10063910;28;20059;-72
2023/04/21 08:09:55;;;;;;;14.07;10.85;;;;;;;-146.18;100.00;67994.34;10070625;28;20039;-72
2023/04/21 08:14:51;;;;;;;12.30;10.35;;;;;;;-146.18;100.00;67994.34;10063817;28;20053;-72
2023/04/21 08:19:48;;;;;;;12.90;10.40;;;;;;;-146.18;100.00;67994.34;10070038;28;20502;-73
2023/04/21 08:24:45;;;;;;;15.48;10.27;;;;;;;-146.18;100.00;67994.34;10060127;28;20043;-72
2023/04/21 08:29:41;;;;;;;15.80;10.77;;;;;;;-146.18;100.00;67994.34;10064186;28;20047;-72
2023/04/21 08:34:38;;;;;;;12.45;10.98;;;;;;;-146.18;100.00;67994.34;10068920;28;20106;-72
2023/04/21 08:39:34;;;;;;;15.35;10.25;;;;;;;-146.18;100.00;67994.34;10066195;28;20079;-73
2023/04/21 08:44:31;;;;;;;13.55;10.38;;;;;;;-146.18;100.00;67994.34;10071552;28;20114;-73
2023/04/21 08:49:30;;;;;;;15.98;11.18;;;;;;;-146.18;100.00;67994.34;10061446;28;20060;-73
2023/04/21 08:54:26;;;;;;;14.48;11.75;;;;;;;-146.18;100.00;67994.34;10062001;28;20102;-72
2023/04/21 08:59:25;;;;;;;11.25;9.98;;;;;;;-146.18;100.00;67994.34;10031813;28;20054;-73
2023/04/21 09:04:21;;;;;;;20.85;15.45;;;;;;;-146.18;100.00;67994.34;10060392;28;20059;-72
2023/04/21 09:09:18;;;;;;;13.15;10.27;;;;;;;-146.18;100.00;67994.34;10062008;28;20078;-73
2023/04/21 09:14:23;;;;;;;14.88;10.18;;;;;;;-146.18;100.00;67994.34;10070416;28;20154;-74
2023/04/21 09:19:19;;;;;;;18.30;10.68;;;;;;;-146.18;100.00;67994.34;10061794;28;20450;-73
2023/04/21 09:24:16;;;;;;;17.60;10.48;;;;;;;-146.18;100.00;67994.34;10069025;28;20509;-73
2023/04/21 09:29:13;;;;;;;12.00;9.57;;;;;;;-146.18;100.00;67994.34;10048672;28;20055;-74
2023/04/21 09:34:32;;;;;;;13.18;9.82;;;;;;;-146.18;100.00;67994.34;10055973;28;20058;-74
2023/04/21 09:39:30;;;;;;;11.77;10.48;;;;;;;-146.18;100.00;67994.34;10051175;28;20107;-74
2023/04/21 09:44:44;;;;;;;11.82;10.07;;;;;;;-146.18;100.00;67994.34;10067758;28;20055;-73
2023/04/21 09:49:51;;;;;;;10.90;9.77;;;;;;;-146.18;100.00;67994.34;10055949;28;20043;-72
2023/04/21 09:54:56;;;;;;;13.00;9.77;;;;;;;-146.18;100.00;67994.34;10069016;28;20520;-72
2023/04/21 10:00:04;;;;;;;10.88;9.38;;;;;;;-146.18;100.00;67994.34;10061808;28;20118;-71
2023/04/21 10:05:01;;;;;;;10.35;9.40;;;;;;;-146.18;100.00;67994.34;10031939;29;20155;-71
2023/04/21 10:09:59;;;;;;;10.18;9.18;;;;;;;-146.18;100.00;67994.34;10058795;28;20057;-72
2023/04/21 10:14:56;;;;;;;12.18;9.55;;;;;;;-146.18;100.00;67994.34;10055243;28;20048;-74
2023/04/21 10:19:56;;;;;;;14.02;10.25;;;;;;;-146.18;100.00;67994.34;10059824;28;20070;-74
2023/04/21 10:24:55;;;;;;;12.13;9.88;;;;;;;-146.18;100.00;67994.34;10063575;28;20067;-74
2023/04/21 10:29:51;;;;;;;11.63;10.23;;;;;;;-146.18;100.00;67994.34;10059648;28;20049;-73
2023/04/21 10:34:55;;;;;;;11.60;10.45;;;;;;;-146.18;100.00;67994.34;10064708;28;21856;-74
2023/04/21 10:39:53;;;;;;;12.13;9.90;;;;;;;-146.18;100.00;67994.34;10056825;28;20057;-73
2023/04/21 10:44:54;;;;;;;10.73;9.20;;;;;;;-146.18;100.00;67994.34;10057842;28;20047;-74
2023/04/21 10:49:50;;;;;;;11.18;10.07;;;;;;;-146.18;100.00;67994.34;10057135;28;21227;-75
2023/04/21 10:54:48;;;;;;;11.07;10.07;;;;;;;-146.18;100.00;67994.34;10057681;28;20088;-73
2023/04/21 10:59:46;;;;;;;11.90;10.43;;;;;;;-146.18;100.00;67994.34;10059559;28;20045;-73
2023/04/21 11:04:46;;;;;;;12.23;10.07;;;;;;;-146.18;100.00;67994.34;10071247;28;20077;-74
2023/04/21 11:09:46;;;;;;;11.67;10.47;;;;;;;-146.18;100.00;67994.34;10066077;28;20059;-72
2023/04/21 11:14:47;;;;;;;11.40;10.25;;;;;;;-146.18;100.00;67994.34;10066762;28;20082;-73
2023/04/21 11:19:45;;;;;;;12.27;10.55;;;;;;;-146.18;100.00;67994.34;10060512;28;20051;-74
2023/04/21 11:24:47;;;;;;;11.05;10.02;;;;;;;-146.18;100.00;67994.34;10067889;28;20269;-73
2023/04/21 11:29:47;;;;;;;11.43;9.88;;;;;;;-146.18;100.00;67994.34;10067474;28;20505;-74
2023/04/21 11:34:44;;;;;;;9.77;8.98;;;;;;;-146.18;100.00;67994.34;10067271;28;20807;-74
2023/04/21 11:39:42;;;;;;;13.57;10.68;;;;;;;-146.18;100.00;67994.34;10063078;28;20061;-75
2023/04/21 11:44:41;;;;;;;10.05;9.15;;;;;;;-146.18;100.00;67994.34;10059895;28;20509;-74
2023/04/21 11:49:47;;;;;;;10.77;9.68;;;;;;;-146.18;100.00;67994.34;10044785;28;20147;-75
2023/04/21 11:54:44;;;;;;;11.43;10.25;;;;;;;-146.18;100.00;67994.34;10061888;28;20039;-75
2023/04/21 11:59:41;;;;;;;15.55;9.18;;;;;;;-146.18;100.00;67994.34;10051584;28;20128;-75
2023/04/21 12:04:37;;;;;;;11.57;10.07;;;;;;;-146.18;100.00;67994.34;10065585;28;20043;-73
2023/04/21 12:09:35;;;;;;;11.15;9.88;;;;;;;-146.18;100.00;67994.34;10070143;28;20078;-72
2023/04/21 12:14:32;;;;;;;10.40;9.30;;;;;;;-146.18;100.00;67994.34;10063309;28;20051;-73
2023/04/21 12:19:40;;;;;;;13.75;10.55;;;;;;;-146.18;100.00;67994.34;10075358;28;20075;-74
2023/04/21 12:24:37;;;;;;;11.23;10.05;;;;;;;-146.18;100.00;67994.34;10061361;28;20051;-72
2023/04/21 12:29:36;;;;;;;13.95;9.82;;;;;;;-146.18;100.00;67994.34;10069563;28;20050;-73
2023/04/21 12:34:32;;;;;;;12.88;9.70;;;;;;;-146.18;100.00;67994.34;10065378;28;20065;-73
2023/04/21 12:39:29;;;;;;;12.00;9.68;;;;;;;-146.18;100.00;67994.34;10063460;28;20045;-73
2023/04/21 12:44:26;;;;;;;12.23;10.00;;;;;;;-146.18;100.00;67994.34;10071961;28;20047;-73
2023/04/21 12:49:23;;;;;;;11.32;9.30;;;;;;;-146.18;100.00;67994.34;10061614;28;20047;-73
2023/04/21 12:54:20;;;;;;;10.77;9.73;;;;;;;-146.18;100.00;67994.34;10063759;28;20059;-73
2023/04/21 12:59:16;;;;;;;11.50;9.68;;;;;;;-146.18;100.00;67994.34;10045337;28;20055;-73
2023/04/21 13:04:13;;;;;;;9.73;8.73;;;;;;;-146.18;100.00;67994.34;10061345;28;20087;-74
2023/04/21 13:09:10;;;;;;;10.57;9.43;;;;;;;-146.18;100.00;67994.34;10061419;28;20502;-74
2023/04/21 13:14:07;;;;;;;10.20;9.20;;;;;;;-146.18;100.00;67994.34;10056251;28;20044;-73
2023/04/21 13:19:04;;;;;;;10.20;9.20;;;;;;;-146.18;100.00;67994.34;10060587;28;20063;-73
2023/04/21 13:24:01;;;;;;;11.23;10.00;;;;;;;-146.18;100.00;67994.34;10036653;28;20075;-73
2023/04/21 13:28:58;;;;;;;10.20;9.30;;;;;;;-146.18;100.00;67994.34;10048062;28;20047;-73
2023/04/21 13:33:55;;;;;;;11.13;9.80;;;;;;;-146.18;100.00;67994.34;10062030;28;20422;-73
2023/04/21 13:38:54;;;;;;;12.10;10.15;;;;;;;-146.18;100.00;67994.34;10068124;28;20150;-73
2023/04/21 13:43:51;;;;;;;12.40;8.82;;;;;;;-146.18;100.00;67994.34;10061775;28;20055;-73
2023/04/21 13:48:49;;;;;;;9.40;8.60;;;;;;;-146.18;100.00;67994.34;10064820;28;20134;-73
2023/04/21 13:53:45;;;;;;;10.77;9.40;;;;;;;-146.18;100.00;67994.34;10058407;28;20046;-73
2023/04/21 13:58:42;;;;;;;10.40;9.50;;;;;;;-146.18;100.00;67994.34;10048617;28;20075;-73
2023/04/21 14:03:38;;;;;;;10.73;8.98;;;;;;;-146.18;100.00;67994.34;10063231;28;20058;-73
2023/04/21 14:08:35;;;;;;;11.35;9.63;;;;;;;-146.18;100.00;67994.34;10061142;28;20047;-74
2023/04/21 14:13:31;;;;;;;10.77;9.77;;;;;;;-146.18;100.00;67994.34;10066309;28;20081;-74
2023/04/21 14:18:44;;;;;;;10.57;9.50;;;;;;;-146.18;100.00;67994.34;10061486;28;20062;-75
2023/04/21 14:23:41;;;;;;;12.00;10.73;;;;;;;-146.18;100.00;67994.34;10055087;28;20468;-74
2023/04/21 14:28:37;;;;;;;10.23;9.23;;;;;;;-146.18;100.00;67994.34;10053389;28;20052;-74
2023/04/21 14:33:34;;;;;;;9.15;8.35;;;;;;;-146.18;100.00;67994.34;10067235;28;20576;-74
2023/04/21 14:38:32;;;;;;;11.05;9.43;;;;;;;-146.18;100.00;67994.34;10061773;28;20079;-74
2023/04/21 14:43:28;;;;;;;10.02;9.13;;;;;;;-146.18;100.00;67994.34;10072518;28;21019;-74
2023/04/21 14:48:25;;;;;;;10.43;8.98;;;;;;;-146.18;100.00;67994.34;10057772;28;20055;-73
2023/04/21 14:53:22;;;;;;;10.90;9.50;;;;;;;-146.18;100.00;67994.34;10071989;28;20422;-73
2023/04/21 14:58:18;;;;;;;12.07;8.93;;;;;;;-146.18;100.00;67994.34;10071385;28;20078;-74
2023/04/21 15:03:14;;;;;;;9.98;9.07;;;;;;;-146.18;100.00;67994.34;10068016;28;20055;-73
2023/04/21 15:08:14;;;;;;;10.55;9.43;;;;;;;-146.18;100.00;67994.34;10061042;28;20107;-73
2023/04/21 15:13:10;;;;;;;10.50;9.50;;;;;;;-146.18;100.00;67994.34;10071473;28;20579;-73
2023/04/21 15:18:07;;;;;;;11.05;9.57;;;;;;;-146.18;100.00;67994.34;10065562;28;20044;-73
2023/04/21 15:23:04;;;;;;;11.30;10.20;;;;;;;-146.18;100.00;67994.34;10058624;28;20460;-73
2023/04/21 15:28:01;;;;;;;12.10;9.15;;;;;;;-146.18;100.00;67994.34;10068980;28;20051;-72
2023/04/21 15:32:57;;;;;;;9.73;8.85;;;;;;;-146.18;100.00;67994.34;10069553;28;20527;-72
2023/04/21 15:37:54;;;;;;;13.57;10.82;;;;;;;-146.18;100.00;67994.34;10070639;28;20039;-73
2023/04/21 15:42:50;;;;;;;9.93;8.70;;;;;;;-146.18;100.00;67994.34;10058250;28;20081;-73
2023/04/21 15:47:47;;;;;;;11.05;10.00;;;;;;;-146.18;100.00;67994.34;10073557;28;20525;-72
2023/04/21 15:52:43;;;;;;;10.48;9.57;;;;;;;-146.18;100.00;67994.34;10069361;28;20047;-72
2023/04/21 15:57:40;;;;;;;11.93;10.73;;;;;;;-146.18;100.00;67994.34;10062340;28;20514;-73
2023/04/21 16:02:37;;;;;;;10.48;9.27;;;;;;;-146.18;100.00;67994.34;10061093;28;20102;-73
2023/04/21 16:07:35;;;;;;;12.27;9.55;;;;;;;-146.18;100.00;67994.34;10061125;28;20058;-73
2023/04/21 16:12:31;;;;;;;10.30;9.30;;;;;;;-146.18;100.00;67994.34;10066732;28;20039;-73
2023/04/21 16:17:27;;;;;;;11.02;9.93;;;;;;;-146.18;100.00;67994.34;10064393;28;20525;-73
2023/04/21 16:22:24;;;;;;;9.80;8.80;;;;;;;-146.18;100.00;67994.34;10065304;28;20062;-74
2023/04/21 16:27:21;;;;;;;11.90;9.77;;;;;;;-146.18;100.00;67994.34;10060084;28;20043;-74
2023/04/21 16:32:17;;;;;;;11.05;9.95;;;;;;;-146.18;100.00;67994.34;10059492;28;20581;-74
2023/04/21 16:37:14;;;;;;;15.63;9.70;;;;;;;-146.18;100.00;67994.34;10071492;28;20043;-74
2023/04/21 16:42:10;;;;;;;9.20;8.40;;;;;;;-146.18;100.00;67994.34;10065966;28;20087;-73
2023/04/21 16:47:07;;;;;;;15.45;9.50;;;;;;;-146.18;100.00;67994.34;10061703;28;20075;-74
2023/04/21 16:52:03;;;;;;;10.82;9.30;;;;;;;-146.18;100.00;67994.34;10059397;28;20055;-74
2023/04/21 16:57:01;;;;;;;9.82;8.82;;;;;;;-146.18;100.00;67994.34;10059071;28;20051;-74
2023/04/21 17:01:57;;;;;;;9.88;8.88;;;;;;;-146.18;100.00;67994.34;10067094;28;20541;-73
2023/04/21 17:06:54;;;;;;;8.98;8.18;;;;;;;-146.18;100.00;67994.34;10057678;28;20060;-74
2023/04/21 17:11:50;;;;;;;10.25;9.00;;;;;;;-146.18;100.00;67994.34;10066196;28;20090;-73
2023/04/21 17:16:47;;;;;;;9.80;8.90;;;;;;;-146.18;100.00;67994.34;10064726;28;20517;-74
2023/04/21 17:21:43;;;;;;;10.27;9.05;;;;;;;-146.18;100.00;67994.34;10059933;28;20055;-73
2023/04/21 17:26:40;;;;;;;9.80;8.68;;;;;;;-146.18;100.00;67994.34;10044357;28;20051;-74
2023/04/21 17:31:36;;;;;;;9.20;8.02;;;;;;;-146.18;100.00;67994.34;10043972;28;20128;-74
2023/04/21 17:36:33;;;;;;;10.37;9.30;;;;;;;-146.18;100.00;67994.34;10064324;28;20303;-74
2023/04/21 17:41:30;;;;;;;10.50;8.55;;;;;;;-146.18;100.00;67994.34;10059118;28;21341;-74
2023/04/21 17:46:26;;;;;;;9.20;8.30;;;;;;;-146.18;100.00;67994.34;10058355;28;20043;-74
2023/04/21 17:51:23;;;;;;;10.32;8.13;;;;;;;-146.18;100.00;67994.34;10066052;28;20043;-73
2023/04/21 17:56:22;;;;;;;9.68;8.00;;;;;;;-146.18;100.00;67994.34;10059443;28;20043;-74
2023/04/21 18:01:19;;;;;;;9.60;8.27;;;;;;;-146.18;100.00;67994.34;10052509;28;20055;-73
2023/04/21 18:06:16;;;;;;;16.60;8.45;;;;;;;-146.18;100.00;67994.34;10065708;28;20129;-74
2023/04/21 18:11:12;;;;;;;10.73;8.25;;;;;;;-146.18;100.00;67994.34;10064859;28;20502;-73
2023/04/21 18:16:09;;;;;;;11.63;8.48;;;;;;;-146.18;100.00;67994.34;10066600;28;20643;-74
2023/04/21 18:21:05;;;;;;;9.30;7.68;;;;;;;-146.18;100.00;67994.34;10051806;28;20055;-73
2023/04/21 18:26:02;;;;;;;12.10;8.07;;;;;;;-146.18;100.00;67994.34;10058034;28;20051;-74
2023/04/21 18:30:59;;;;;;;9.27;7.80;;;;;;;-146.18;100.00;67994.34;10065722;28;20039;-73
2023/04/21 18:35:56;;;;;;;9.27;8.05;;;;;;;-146.18;100.00;67994.34;10065312;28;20126;-74
2023/04/21 18:40:53;;;;;;;10.18;8.82;;;;;;;-146.18;100.00;67994.34;10064003;28;20062;-74
2023/04/21 18:45:49;;;;;;;9.35;8.18;;;;;;;-146.18;100.00;67994.34;10058808;28;20074;-74
2023/04/21 18:50:45;;;;;;;10.30;9.20;;;;;;;-146.18;100.00;67994.34;10060424;28;20063;-74
2023/04/21 18:55:42;;;;;;;13.20;9.70;;;;;;;-146.18;100.00;67994.34;10063651;28;20063;-73
2023/04/21 19:00:39;;;;;;;9.93;8.40;;;;;;;-146.18;100.00;67994.34;10067772;28;20051;-74
2023/04/21 19:05:37;;;;;;;11.90;9.30;;;;;;;-146.18;100.00;67994.34;10063640;28;20122;-74
2023/04/21 19:10:34;;;;;;;12.05;9.80;;;;;;;-146.18;100.00;67994.34;10055138;28;20161;-73
2023/04/21 19:15:31;;;;;;;9.80;8.90;;;;;;;-146.18;100.00;67994.34;10058815;28;20051;-74
2023/04/21 19:20:28;;;;;;;11.07;8.82;;;;;;;-146.18;100.00;67994.34;10051382;28;20071;-73
2023/04/21 19:25:24;;;;;;;12.07;8.68;;;;;;;-146.18;100.00;67994.34;10061414;28;20142;-73
2023/04/21 19:30:21;;;;;;;10.95;8.90;;;;;;;-146.18;100.00;67994.34;10064939;28;20498;-73
2023/04/21 19:35:18;;;;;;;13.75;9.55;;;;;;;-146.18;100.00;67994.34;10059559;28;20070;-73
2023/04/21 19:40:14;;;;;;;10.18;7.88;;;;;;;-146.18;100.00;67994.34;10069010;28;20126;-73
2023/04/21 19:45:11;;;;;;;10.25;7.85;;;;;;;-146.18;100.00;67994.34;10061952;28;20053;-73
2023/04/21 19:50:08;;;;;;;8.77;7.78;;;;;;;-146.18;100.00;67994.34;10066187;28;20058;-72
2023/04/21 19:55:05;;;;;;;9.57;8.10;;;;;;;-146.18;100.00;67994.34;10027257;28;20494;-73
2023/04/21 20:00:04;;;;;;;8.95;8.05;;;;;;;-146.18;100.00;67994.34;10019426;29;20123;-73
2023/04/21 20:05:01;;;;;;;9.30;7.45;;;;;;;-146.18;100.00;67994.34;10055338;29;20417;-73
2023/04/21 20:09:57;;;;;;;8.73;7.43;;;;;;;-146.18;100.00;67994.34;10062529;29;20524;-73
2023/04/21 20:14:54;;;;;;;11.70;7.22;;;;;;;-146.18;100.00;67994.34;10070268;28;20051;-74
2023/04/21 20:19:51;;;;;;;16.85;7.80;;;;;;;-146.18;100.00;67994.34;10055943;28;20105;-74
2023/04/21 20:24:48;;;;;;;10.90;8.10;;;;;;;-146.18;100.00;67994.34;10068722;28;20081;-73
2023/04/21 20:29:45;;;;;;;9.00;7.53;;;;;;;-146.18;100.00;67994.34;10068370;28;20047;-73
2023/04/21 20:34:42;;;;;;;9.70;6.93;;;;;;;-146.18;100.00;67994.34;10062948;28;20130;-73
2023/04/21 20:39:38;;;;;;;8.02;7.10;;;;;;;-146.18;100.00;67994.34;10057674;28;20051;-73
2023/04/21 20:44:36;;;;;;;7.40;6.03;;;;;;;-146.18;100.00;67994.34;10054710;28;20056;-73
2023/04/21 20:49:32;;;;;;;8.57;7.22;;;;;;;-146.18;100.00;67994.34;10063507;28;20035;-73
2023/04/21 20:54:29;;;;;;;8.32;6.28;;;;;;;-146.18;100.00;67994.34;10063789;28;20078;-73
2023/04/21 20:59:25;;;;;;;8.95;7.80;;;;;;;-146.18;100.00;67994.34;10056545;28;20066;-73
2023/04/21 21:04:22;;;;;;;12.00;7.00;;;;;;;-146.18;100.00;67994.34;10069091;28;20043;-73
2023/04/21 21:09:19;;;;;;;7.40;6.70;;;;;;;-146.18;100.00;67994.34;10069181;28;20102;-73
2023/04/21 21:14:15;;;;;;;10.35;6.90;;;;;;;-146.18;100.00;67994.34;10065780;28;20580;-72
2023/04/21 21:19:12;;;;;;;13.00;6.72;;;;;;;-146.18;100.00;67994.34;10061722;28;20153;-73
2023/04/21 21:24:08;;;;;;;11.68;7.90;;;;;;;-146.18;100.00;67994.34;10054221;28;20562;-74
2023/04/21 21:29:06;;;;;;;9.57;6.85;;;;;;;-146.18;100.00;67994.34;10052678;28;20072;-73
2023/04/21 21:34:03;;;;;;;8.75;6.72;;;;;;;-146.18;100.00;67994.34;10064728;28;20047;-73
2023/04/21 21:38:59;;;;;;;8.05;6.60;;;;;;;-146.18;100.00;67994.34;10059377;28;20051;-74
2023/04/21 21:43:56;;;;;;;8.55;6.25;;;;;;;-146.18;100.00;67994.34;10056422;28;20691;-73
2023/04/21 21:48:52;;;;;;;10.82;6.57;;;;;;;-146.18;100.00;67994.34;10059330;28;20046;-73
2023/04/21 21:53:48;;;;;;;9.23;7.05;;;;;;;-146.18;100.00;67994.34;10054389;28;20043;-74
2023/04/21 21:58:45;;;;;;;9.45;7.40;;;;;;;-146.18;100.00;67994.34;10065365;28;20047;-74